Time;durP1;ratioP1;P1;durP2;ratioP2;P2;SDS_P1;SDS_P2;PMS_P1;PMS_P2;Temp;Humidity;BMP_temperature;BMP_pressure;BME280_temperature;BME280_humidity;BME280_pressure;Samples;Min_cycle;Max_cycle;Signal;HPM_P1;HPM_P2
2022/10/02 00:02:21;;;;;;;3.28;1.35;;;;;;;10.99;76.26;100565.28;6243305;22;20600;-36
2022/10/02 00:05:01;;;;;;;4.03;1.70;;;;;;;10.95;76.78;100567.97;6243303;23;20007;-36
2022/10/02 00:07:34;;;;;;;3.25;1.60;;;;;;;10.95;76.43;100563.56;6244540;22;20062;-36
2022/10/02 00:10:22;;;;;;;3.13;1.60;;;;;;;10.94;76.56;100564.44;6240631;23;20462;-36
2022/10/02 00:12:51;;;;;;;3.38;1.55;;;;;;;10.94;76.44;100563.59;6243034;23;20011;-36
2022/10/02 00:15:23;;;;;;;4.18;1.45;;;;;;;10.94;76.36;100568.88;6244089;22;20023;-36
2022/10/02 00:17:54;;;;;;;5.40;1.88;;;;;;;10.93;76.65;100578.53;6241491;23;20023;-36
2022/10/02 00:20:26;;;;;;;3.33;1.58;;;;;;;10.89;77.02;100569.78;6242440;22;20012;-36
2022/10/02 00:23:20;;;;;;;2.95;1.48;;;;;;;10.89;76.79;100577.72;6243974;22;20087;-36
2022/10/02 00:26:10;;;;;;;4.85;1.75;;;;;;;10.90;77.28;100573.28;6242708;23;20432;-36
2022/10/02 00:29:16;;;;;;;3.22;1.85;;;;;;;10.86;77.29;100584.78;6267910;22;20058;-36
2022/10/02 00:32:04;;;;;;;5.28;1.60;;;;;;;10.84;77.55;100584.78;6245437;22;20343;-36
2022/10/02 00:34:38;;;;;;;4.85;1.70;;;;;;;10.84;77.79;100591.84;6242264;22;20065;-36
2022/10/02 00:37:15;;;;;;;3.55;1.80;;;;;;;10.81;78.41;100592.75;6244690;23;20435;-36
2022/10/02 00:39:50;;;;;;;3.50;1.80;;;;;;;10.81;77.88;100590.13;6245973;23;20051;-36
2022/10/02 00:42:40;;;;;;;5.05;1.75;;;;;;;10.81;78.08;100598.03;6245784;23;20526;-36
2022/10/02 00:45:41;;;;;;;3.55;1.60;;;;;;;10.82;77.78;100596.25;6245372;23;20004;-36
2022/10/02 00:48:37;;;;;;;3.20;1.70;;;;;;;10.84;77.25;100603.25;6245349;22;20502;-37
2022/10/02 00:51:16;;;;;;;3.15;1.80;;;;;;;10.84;76.63;100590.06;6245784;23;20011;-36
2022/10/02 00:54:12;;;;;;;5.68;2.38;;;;;;;10.85;76.59;100596.22;6244783;22;20004;-36
2022/10/02 00:57:06;;;;;;;5.20;1.80;;;;;;;10.85;76.19;100598.88;6244601;23;20335;-37
2022/10/02 00:59:50;;;;;;;3.90;1.80;;;;;;;10.84;75.90;100600.63;6243791;23;20000;-36
2022/10/02 01:02:24;;;;;;;5.63;2.00;;;;;;;10.82;76.39;100607.69;6254750;22;20083;-37
2022/10/02 01:04:50;;;;;;;4.80;1.98;;;;;;;10.81;76.38;100608.59;6274664;22;19999;-36
2022/10/02 01:07:15;;;;;;;5.47;1.90;;;;;;;10.80;76.38;100609.47;6247578;22;20006;-36
2022/10/02 01:09:44;;;;;;;4.45;1.60;;;;;;;10.79;76.37;100620.91;6222863;22;20446;-36
2022/10/02 01:12:10;;;;;;;2.83;1.70;;;;;;;10.74;76.66;100612.19;6248173;22;20007;-37
2022/10/02 01:14:38;;;;;;;3.97;1.55;;;;;;;10.75;76.80;100613.94;6275900;22;20004;-37
2022/10/02 01:17:06;;;;;;;3.85;1.80;;;;;;;10.73;76.84;100618.31;6276816;22;20010;-37
2022/10/02 01:19:39;;;;;;;4.03;1.90;;;;;;;10.72;76.56;100613.94;6247909;22;20395;-36
2022/10/02 01:22:17;;;;;;;3.50;1.77;;;;;;;10.71;76.83;100628.03;6248677;22;19999;-37
2022/10/02 01:24:48;;;;;;;3.05;1.77;;;;;;;10.70;77.24;100627.16;6273441;22;20000;-36
2022/10/02 01:27:13;;;;;;;3.42;1.70;;;;;;;10.70;77.00;100634.22;6274685;22;20012;-37
2022/10/02 01:29:40;;;;;;;3.35;1.80;;;;;;;10.71;76.72;100628.03;6248034;22;20380;-37
2022/10/02 01:32:06;;;;;;;6.38;1.85;;;;;;;10.69;77.09;100640.34;6249593;22;20065;-37
2022/10/02 01:34:32;;;;;;;3.17;1.60;;;;;;;10.71;77.25;100634.16;6248072;22;20034;-36
2022/10/02 01:36:58;;;;;;;3.20;1.52;;;;;;;10.72;77.17;100635.06;6248879;22;20003;-36
2022/10/02 01:39:23;;;;;;;4.70;1.92;;;;;;;10.71;77.53;100633.31;6273947;22;20007;-36
2022/10/02 01:41:48;;;;;;;3.80;1.70;;;;;;;10.70;78.06;100639.50;6276052;22;20007;-36
2022/10/02 01:44:15;;;;;;;3.97;1.83;;;;;;;10.68;78.47;100628.06;6248122;22;20038;-36
2022/10/02 01:47:07;;;;;;;4.05;1.73;;;;;;;10.68;78.43;100633.34;6249782;22;20011;-37
2022/10/02 01:49:58;;;;;;;3.65;1.70;;;;;;;10.67;78.92;100636.88;6275877;22;20000;-36
2022/10/02 01:55:35;;;;;;;2.95;1.48;;;;;;;10.64;79.32;100650.97;6273661;22;20015;-36
2022/10/02 01:58:28;;;;;;;5.40;1.90;;;;;;;10.69;79.07;100648.25;6248079;22;20023;-37
2022/10/02 02:01:09;;;;;;;4.70;1.80;;;;;;;10.68;79.44;100644.78;6274097;22;20435;-36
2022/10/02 02:03:38;;;;;;;5.40;2.08;;;;;;;10.68;79.42;100654.44;6274795;22;20059;-37
2022/10/02 02:06:08;;;;;;;4.90;1.90;;;;;;;10.67;79.61;100663.25;6272956;22;20018;-37
2022/10/02 02:08:38;;;;;;;3.33;2.00;;;;;;;10.64;80.06;100658.88;6247197;22;20011;-36
2022/10/02 02:11:10;;;;;;;;;;;;;;;10.65;79.99;100655.34;6275073;22;20008;-37
2022/10/02 02:13:46;;;;;;;4.50;1.77;;;;;;;10.62;80.36;100645.72;6273810;22;20250;-37
2022/10/02 02:16:30;;;;;;;3.72;1.52;;;;;;;10.61;79.95;100649.22;6247488;22;20007;-37
2022/10/02 02:19:09;;;;;;;5.78;1.92;;;;;;;10.59;79.90;100651.00;6250987;22;20091;-36
2022/10/02 02:21:55;;;;;;;5.05;1.95;;;;;;;10.59;80.13;100652.75;6249801;22;20054;-37
2022/10/02 02:24:30;;;;;;;4.30;1.70;;;;;;;10.58;80.47;100654.53;6248821;22;20442;-36
2022/10/02 02:26:58;;;;;;;4.53;1.80;;;;;;;10.57;80.25;100647.50;6276943;22;20011;-36
2022/10/02 02:29:25;;;;;;;4.95;1.73;;;;;;;10.59;79.49;100645.72;6222542;22;20007;-36
2022/10/02 02:31:56;;;;;;;5.80;2.00;;;;;;;10.60;79.55;100663.31;6248802;22;20011;-37
2022/10/02 02:34:31;;;;;;;4.82;1.65;;;;;;;10.60;79.28;100657.16;6276217;22;20000;-36
2022/10/02 02:37:03;;;;;;;3.78;1.70;;;;;;;10.60;78.83;100650.13;6248043;22;20035;-36
2022/10/02 02:40:02;;;;;;;4.97;1.85;;;;;;;10.61;78.71;100653.63;6248032;22;20007;-36
2022/10/02 02:42:34;;;;;;;5.93;1.80;;;;;;;10.60;78.28;100652.75;6275781;22;20016;-37
2022/10/02 02:45:27;;;;;;;3.65;1.70;;;;;;;10.59;78.58;100655.41;6275438;22;20308;-36
2022/10/02 02:48:19;;;;;;;4.28;1.77;;;;;;;10.57;78.84;100665.97;6272908;22;20003;-37
2022/10/02 02:51:21;;;;;;;3.55;1.80;;;;;;;10.59;78.31;100665.94;6248278;22;20419;-36
2022/10/02 02:54:10;;;;;;;5.53;1.83;;;;;;;10.56;78.07;100658.94;6239388;22;20011;-36
2022/10/02 02:56:35;;;;;;;4.22;1.60;;;;;;;10.56;77.84;100661.59;6275734;22;20007;-36
2022/10/02 02:59:09;;;;;;;3.65;1.80;;;;;;;10.56;78.04;100664.22;6247402;22;20011;-36
2022/10/02 03:01:34;;;;;;;6.45;1.73;;;;;;;10.55;77.84;100665.13;6248887;22;20014;-36
2022/10/02 03:04:00;;;;;;;5.72;1.70;;;;;;;10.55;77.93;100667.75;6275979;22;20003;-37
2022/10/02 03:06:36;;;;;;;4.78;1.40;;;;;;;10.54;78.24;100662.50;6248724;22;20071;-36
2022/10/02 03:12:27;;;;;;;;;;;;;;;10.51;78.33;100673.94;6275690;22;20015;-37
2022/10/02 03:15:11;;;;;;;;;;;;;;;10.51;77.87;100676.59;6248382;22;20207;-36
2022/10/02 03:18:05;;;;;;;5.20;1.55;;;;;;;10.49;78.04;100671.31;6274381;22;19903;-36
2022/10/02 03:20:42;;;;;;;3.00;1.50;;;;;;;10.50;78.81;100674.81;6275628;22;20408;-36
2022/10/02 03:23:29;;;;;;;4.22;1.48;;;;;;;10.48;79.28;100664.31;6223376;22;20004;-36
2022/10/02 03:26:09;;;;;;;3.78;1.75;;;;;;;10.48;79.02;100658.16;6274396;22;20454;-36
2022/10/02 03:28:45;;;;;;;5.43;1.52;;;;;;;10.48;79.37;100652.88;6249032;22;20454;-36
2022/10/02 03:31:11;;;;;;;10.60;2.13;;;;;;;10.47;78.77;100664.31;6274107;22;20050;-36
2022/10/02 03:33:38;;;;;;;4.25;1.50;;;;;;;10.48;78.93;100660.78;6275698;22;20061;-36
2022/10/02 03:36:03;;;;;;;3.78;2.00;;;;;;;10.49;79.28;100673.97;6249181;22;20075;-36
2022/10/02 03:38:30;;;;;;;4.57;1.73;;;;;;;10.49;79.23;100680.97;6277005;22;20472;-36
2022/10/02 03:40:59;;;;;;;4.65;1.55;;;;;;;10.50;78.96;100678.34;6249608;22;20319;-36
2022/10/02 03:43:29;;;;;;;8.32;1.63;;;;;;;10.50;79.17;100672.19;6276611;22;20007;-36
2022/10/02 03:45:55;;;;;;;5.80;1.58;;;;;;;10.50;79.48;100674.81;6249428;22;20438;-36
2022/10/02 03:48:20;;;;;;;3.72;1.73;;;;;;;10.50;79.41;100678.34;6249108;22;20000;-36
2022/10/02 03:50:46;;;;;;;5.43;1.83;;;;;;;10.50;79.40;100673.06;6249271;22;20004;-36
2022/10/02 03:53:18;;;;;;;6.88;2.25;;;;;;;10.51;78.78;100679.22;6278621;22;20075;-36
2022/10/02 03:55:53;;;;;;;4.35;1.60;;;;;;;10.52;79.52;100670.41;6277494;22;20412;-37
2022/10/02 03:58:19;;;;;;;4.90;1.70;;;;;;;10.53;79.17;100682.69;6250468;22;20434;-36
2022/10/02 04:00:49;;;;;;;6.25;1.77;;;;;;;10.55;78.55;100682.69;6243750;22;20442;-31
2022/10/02 04:03:20;;;;;;;4.32;1.55;;;;;;;10.56;78.60;100690.59;6243203;23;20012;-32
2022/10/02 04:05:55;;;;;;;4.75;1.42;;;;;;;10.58;78.70;100690.59;6241647;23;20366;-32
2022/10/02 04:08:27;;;;;;;3.75;1.70;;;;;;;10.60;78.21;100699.38;6243581;23;20004;-31
2022/10/02 04:11:05;;;;;;;3.53;1.50;;;;;;;10.62;78.29;100692.31;6242348;22;20000;-32
2022/10/02 04:13:32;;;;;;;4.70;1.63;;;;;;;10.62;78.07;100687.91;6242764;23;20415;-32
2022/10/02 04:16:36;;;;;;;4.30;1.48;;;;;;;10.62;77.80;100687.03;6244096;22;20029;-32
2022/10/02 04:19:10;;;;;;;5.63;1.48;;;;;;;10.61;77.82;100688.78;6180872;23;20021;-32
2022/10/02 04:21:43;;;;;;;4.38;1.70;;;;;;;10.61;78.48;100696.69;6180533;23;20475;-31
2022/10/02 04:24:32;;;;;;;4.13;1.55;;;;;;;10.60;78.50;100694.94;6202781;22;20504;-31
2022/10/02 04:26:57;;;;;;;;;;;;;;;10.60;78.32;100700.22;6244257;22;20091;-30
2022/10/02 04:29:27;;;;;;;3.83;1.60;;;;;;;10.59;78.11;100698.47;6243956;22;20001;-30
2022/10/02 04:31:53;;;;;;;;;;;;;;;10.58;78.28;100701.13;6244834;22;20142;-27
2022/10/02 04:34:19;;;;;;;3.97;1.60;;;;;;;10.60;78.50;100694.94;6243715;22;20334;-26
2022/10/02 04:37:09;;;;;;;4.63;2.13;;;;;;;10.58;79.07;100693.22;6240993;23;20004;-26
2022/10/02 04:39:53;;;;;;;3.88;1.80;;;;;;;10.56;78.88;100703.78;6242303;22;20008;-27
2022/10/02 04:42:28;;;;;;;3.85;1.58;;;;;;;10.52;79.20;100705.59;6242119;23;20004;-27
2022/10/02 04:45:03;;;;;;;3.75;1.67;;;;;;;10.52;78.61;100700.31;6265314;22;20003;-27
2022/10/02 04:48:22;;;;;;;5.63;1.63;;;;;;;10.52;78.30;100702.06;6241660;23;20008;-27
2022/10/02 04:51:23;;;;;;;4.70;1.75;;;;;;;10.54;77.68;100699.41;6218508;22;20004;-27
2022/10/02 04:54:31;;;;;;;6.20;2.05;;;;;;;10.55;77.01;100691.50;6240730;23;20007;-27
2022/10/02 04:56:59;;;;;;;4.15;1.88;;;;;;;10.55;76.79;100699.41;6243641;22;20000;-26
2022/10/02 04:59:33;;;;;;;6.60;1.98;;;;;;;10.55;76.52;100701.16;6242863;22;20070;-27
2022/10/02 05:02:23;;;;;;;6.10;1.85;;;;;;;10.55;76.41;100707.31;6271281;22;20071;-30
2022/10/02 05:05:27;;;;;;;3.10;1.65;;;;;;;10.53;76.27;100714.34;6272470;22;20083;-27
2022/10/02 05:08:07;;;;;;;6.97;1.77;;;;;;;10.52;75.97;100717.88;6274297;22;20494;-29
2022/10/02 05:10:51;;;;;;;5.55;1.80;;;;;;;10.51;75.78;100710.88;6274443;22;20431;-27
2022/10/02 05:13:31;;;;;;;4.65;1.85;;;;;;;10.49;76.02;100710.00;6272018;22;20070;-27
2022/10/02 05:16:33;;;;;;;4.18;1.80;;;;;;;10.49;75.67;100717.91;6274059;22;20003;-27
2022/10/02 05:19:23;;;;;;;5.18;2.22;;;;;;;10.44;75.87;100699.44;6274215;22;20062;-28
2022/10/02 05:22:01;;;;;;;6.20;2.10;;;;;;;10.44;75.94;100714.41;6271619;22;20008;-29
2022/10/02 05:24:45;;;;;;;3.78;1.75;;;;;;;10.43;75.72;100707.38;6270602;22;20057;-28
2022/10/02 05:27:20;;;;;;;4.60;2.13;;;;;;;10.42;76.14;100710.88;6273314;22;20033;-28
2022/10/02 05:30:04;;;;;;;4.10;1.85;;;;;;;10.41;75.76;100704.75;6270548;22;20008;-28
2022/10/02 05:32:38;;;;;;;4.43;2.03;;;;;;;10.38;75.83;100695.09;6245050;22;20053;-27
2022/10/02 05:35:22;;;;;;;5.25;2.17;;;;;;;10.39;75.59;100690.69;6242296;22;20007;-27
2022/10/02 05:38:12;;;;;;;6.32;2.15;;;;;;;10.36;75.91;100681.06;6269063;22;20003;-30
2022/10/02 05:41:28;;;;;;;6.05;2.53;;;;;;;10.36;75.63;100688.09;6271058;22;20069;-28
2022/10/02 05:44:21;;;;;;;4.30;2.10;;;;;;;10.36;75.47;100703.91;6140054;22;20514;-27
2022/10/02 05:47:06;;;;;;;7.50;1.98;;;;;;;10.34;75.82;100693.38;6273568;22;20015;-27
2022/10/02 05:49:47;;;;;;;6.00;2.30;;;;;;;10.34;75.78;100682.81;6273861;22;20026;-27
2022/10/02 05:52:16;;;;;;;5.45;2.42;;;;;;;10.32;75.81;100689.88;6274991;22;20008;-28
2022/10/02 05:54:50;;;;;;;3.80;2.20;;;;;;;10.32;76.74;100696.91;6269292;22;20075;-30
2022/10/02 05:57:21;;;;;;;4.30;2.20;;;;;;;10.30;76.37;100696.91;6270497;22;20004;-27
2022/10/02 06:00:14;;;;;;;4.82;2.10;;;;;;;10.31;76.34;100703.97;6272947;22;20003;-27
2022/10/02 06:03:14;;;;;;;4.25;2.22;;;;;;;10.31;76.08;100703.06;6272783;22;20011;-30
2022/10/02 06:06:13;;;;;;;5.43;2.22;;;;;;;10.32;76.19;100715.34;6207727;22;20004;-28
2022/10/02 06:08:48;;;;;;;4.95;1.90;;;;;;;10.33;75.91;100718.00;6273875;22;20373;-27
2022/10/02 06:11:19;;;;;;;4.15;2.17;;;;;;;10.33;76.14;100701.28;6245385;22;19999;-27
2022/10/02 06:13:57;;;;;;;3.65;2.08;;;;;;;10.34;76.12;100708.31;6274170;22;20057;-27
2022/10/02 06:16:30;;;;;;;6.72;2.22;;;;;;;10.33;75.79;100707.44;6271371;22;19996;-28
2022/10/02 06:19:54;;;;;;;4.22;2.05;;;;;;;10.33;75.91;100723.25;6273057;22;20034;-27
2022/10/02 06:23:21;;;;;;;4.00;2.00;;;;;;;10.35;76.09;100726.78;6132813;23;20009;-27
2022/10/02 06:26:21;;;;;;;4.15;2.17;;;;;;;10.35;76.46;100718.88;6130291;23;20056;-29
2022/10/02 06:29:58;;;;;;;5.53;2.22;;;;;;;10.39;78.23;100715.31;6180444;23;20011;-29
2022/10/02 06:32:37;;;;;;;4.75;2.30;;;;;;;10.44;77.78;100719.69;6166713;22;20459;-27
2022/10/02 06:35:29;;;;;;;5.30;2.22;;;;;;;10.47;77.62;100724.97;6274148;22;19999;-27
2022/10/02 06:38:28;;;;;;;5.55;2.20;;;;;;;10.50;77.60;100731.06;6216520;22;20454;-28
2022/10/02 06:41:37;;;;;;;4.97;2.40;;;;;;;10.54;79.08;100725.78;6249015;22;20014;-28
2022/10/02 06:44:55;;;;;;;5.03;2.53;;;;;;;10.58;79.09;100722.22;6149578;23;20113;-27
2022/10/02 06:51:17;;;;;;;5.35;2.13;;;;;;;10.67;80.75;100711.59;6181597;23;20419;-27
2022/10/02 06:54:00;;;;;;;5.97;2.40;;;;;;;10.72;81.28;100714.19;6178355;23;20009;-27
2022/10/02 06:56:40;;;;;;;6.32;2.40;;;;;;;10.75;81.51;100708.91;6183994;22;20012;-28
2022/10/02 06:59:43;;;;;;;5.70;2.50;;;;;;;10.79;82.40;100721.16;6271460;22;20439;-27
2022/10/02 07:02:11;;;;;;;5.40;2.75;;;;;;;10.84;82.32;100724.63;6271990;22;20082;-29
2022/10/02 07:05:06;;;;;;;3.65;2.38;;;;;;;10.87;82.45;100729.88;6269029;22;20003;-30
2022/10/02 07:07:32;;;;;;;4.45;2.40;;;;;;;10.93;82.22;100723.66;6271340;22;20065;-27
2022/10/02 07:10:28;;;;;;;5.83;2.53;;;;;;;10.96;81.96;100728.03;6273582;22;20078;-27
2022/10/02 07:13:25;;;;;;;6.53;2.55;;;;;;;11.00;82.21;100725.34;6271491;22;20058;-27
2022/10/02 07:16:07;;;;;;;6.22;2.55;;;;;;;11.04;82.19;100720.94;6248077;22;20003;-28
2022/10/02 07:18:52;;;;;;;5.57;2.50;;;;;;;11.08;82.31;100709.47;6272669;22;20004;-27
2022/10/02 07:21:20;;;;;;;6.68;2.80;;;;;;;11.11;82.85;100714.69;6272850;22;20008;-28
2022/10/02 07:24:10;;;;;;;6.22;2.60;;;;;;;11.16;82.49;100718.16;6272729;22;20004;-27
2022/10/02 07:26:38;;;;;;;6.72;2.50;;;;;;;11.19;82.70;100711.97;6247507;22;20003;-27
2022/10/02 07:29:28;;;;;;;4.88;2.53;;;;;;;11.24;83.06;100725.13;6274049;22;20004;-28
2022/10/02 07:31:56;;;;;;;5.78;2.30;;;;;;;11.26;83.42;100721.56;6274073;22;20006;-28
2022/10/02 07:34:43;;;;;;;5.95;2.25;;;;;;;11.29;83.31;100731.22;6274988;22;20023;-28
2022/10/02 07:37:24;;;;;;;7.10;2.50;;;;;;;11.33;83.44;100721.50;6274148;22;20053;-27
2022/10/02 07:40:28;;;;;;;6.90;2.70;;;;;;;11.38;83.27;100736.41;6271689;22;20010;-29
2022/10/02 07:43:34;;;;;;;4.95;2.45;;;;;;;11.42;83.02;100732.84;6276359;22;20078;-28
2022/10/02 07:53:27;;;;;;;4.45;1.92;;;;;;;11.55;84.58;100744.09;6210564;22;20341;-28
2022/10/02 07:56:31;;;;;;;5.25;2.33;;;;;;;11.61;84.58;100737.88;6229033;22;20028;-27
2022/10/02 07:59:34;;;;;;;6.38;2.78;;;;;;;11.67;84.72;100737.81;6139489;23;20012;-27
2022/10/02 08:02:44;;;;;;;5.00;2.28;;;;;;;11.74;84.21;100743.03;6268913;22;20015;-28
2022/10/02 08:06:33;;;;;;;6.72;2.28;;;;;;;11.81;85.25;100747.34;6168067;22;20029;-27
2022/10/02 08:10:15;;;;;;;6.72;2.30;;;;;;;11.85;85.28;100749.03;6272369;22;20422;-27
2022/10/02 08:13:44;;;;;;;4.57;2.13;;;;;;;11.92;85.64;100748.06;6236233;22;20045;-28
2022/10/02 08:16:34;;;;;;;5.18;2.17;;;;;;;12.01;85.61;100756.78;6269319;22;20405;-28
2022/10/02 08:19:02;;;;;;;4.75;2.20;;;;;;;12.04;85.57;100754.09;6268439;22;20023;-28
2022/10/02 08:21:31;;;;;;;6.72;2.10;;;;;;;12.08;85.59;100761.13;6275229;22;20026;-28
2022/10/02 08:24:26;;;;;;;3.35;2.03;;;;;;;12.14;84.65;100763.66;6271532;22;20015;-28
2022/10/02 08:26:56;;;;;;;6.78;2.20;;;;;;;12.19;84.88;100755.66;6274260;22;20458;-28
2022/10/02 08:29:43;;;;;;;4.90;2.03;;;;;;;12.22;84.27;100760.91;6274844;22;20004;-28
2022/10/02 08:32:35;;;;;;;7.78;2.28;;;;;;;12.28;84.34;100754.66;6245521;22;20010;-28
2022/10/02 08:35:07;;;;;;;4.68;2.00;;;;;;;12.30;83.92;100750.19;6273127;22;20014;-30
2022/10/02 08:37:42;;;;;;;5.13;1.92;;;;;;;12.34;84.00;100754.53;6248337;22;20039;-28
2022/10/02 08:40:21;;;;;;;6.30;2.22;;;;;;;12.35;84.19;100743.09;6275145;22;20414;-28
2022/10/02 08:46:38;;;;;;;6.72;2.00;;;;;;;12.43;83.53;100749.13;6269710;22;20466;-29
2022/10/02 08:49:48;;;;;;;8.65;2.50;;;;;;;12.48;83.77;100740.25;6275421;22;20008;-28
2022/10/02 08:53:23;;;;;;;4.90;2.30;;;;;;;12.50;83.75;100738.47;6212193;23;20083;-28
2022/10/02 08:59:17;;;;;;;5.07;2.38;;;;;;;12.57;83.58;100735.69;6249173;22;20100;-27
2022/10/02 09:02:38;;;;;;;3.70;2.00;;;;;;;12.59;83.52;100725.06;6275519;22;20065;-28
2022/10/02 09:13:07;;;;;;;5.93;2.13;;;;;;;12.72;83.96;100716.91;6178261;23;20020;-30
2022/10/02 09:23:42;;;;;;;4.60;2.03;;;;;;;12.90;83.88;100721.03;6178632;23;20118;-28
2022/10/02 09:26:47;;;;;;;5.85;2.35;;;;;;;12.99;83.72;100717.31;6040426;23;20018;-28
2022/10/02 09:30:14;;;;;;;6.93;2.50;;;;;;;13.07;83.72;100721.56;6048333;23;20015;-28
2022/10/02 09:40:19;;;;;;;4.47;2.10;;;;;;;13.58;87.11;100716.22;6119598;23;20097;-29
2022/10/02 09:43:23;;;;;;;5.50;2.10;;;;;;;13.68;86.52;100716.91;6192925;23;20013;-27
2022/10/02 09:46:32;;;;;;;4.85;1.85;;;;;;;13.77;86.03;100707.88;6210610;23;20327;-28
2022/10/02 09:49:59;;;;;;;3.85;2.05;;;;;;;13.89;85.76;100718.19;6155287;23;20013;-27
2022/10/02 09:53:32;;;;;;;4.65;2.13;;;;;;;14.02;85.57;100723.22;6113215;23;20010;-27
2022/10/02 09:56:23;;;;;;;9.45;2.30;;;;;;;14.15;84.73;100711.44;6124130;23;20002;-28
2022/10/02 10:09:05;;;;;;;6.57;2.10;;;;;;;14.65;83.30;100718.19;6208660;23;20375;-33
2022/10/02 10:11:56;;;;;;;6.50;2.30;;;;;;;14.74;83.27;100722.41;6213572;23;20023;-34
2022/10/02 10:18:45;;;;;;;4.95;2.22;;;;;;;14.97;83.33;100719.16;6214295;23;20022;-34
2022/10/02 12:08:23;;;;;;;4.10;2.30;;;;;;;17.59;69.04;100702.00;6245217;23;20023;-32
2022/10/02 12:11:24;;;;;;;;;;;;;;;17.60;68.91;100692.22;6245215;22;20042;-33
2022/10/02 12:15:26;;;;;;;5.40;2.55;;;;;;;17.65;69.34;100687.56;6244901;23;19903;-33
2022/10/02 12:32:07;;;;;;;6.00;2.70;;;;;;;17.59;66.59;100693.13;5136518;27;20390;-33
2022/10/02 12:37:57;;;;;;;7.20;2.30;;;;;;;17.59;66.86;100682.44;5067857;28;20043;-31
2022/10/02 12:41:13;;;;;;;6.70;2.20;;;;;;;17.60;66.43;100682.41;5069992;28;20044;-31
2022/10/02 12:44:00;;;;;;;6.63;2.20;;;;;;;17.59;65.25;100687.78;5054438;28;20086;-31
2022/10/02 12:46:56;;;;;;;6.90;2.33;;;;;;;17.57;65.26;100674.50;5082700;28;20031;-31
2022/10/02 12:49:26;;;;;;;5.10;2.10;;;;;;;17.55;65.19;100682.56;5066497;28;20029;-31
2022/10/02 12:52:34;;;;;;;4.35;1.92;;;;;;;17.50;63.85;100687.22;5047848;28;20031;-31
2022/10/02 12:55:02;;;;;;;5.30;2.00;;;;;;;17.54;65.19;100690.66;5017717;28;20395;-31
2022/10/02 12:57:54;;;;;;;5.32;2.38;;;;;;;17.51;64.33;100688.09;5047159;28;20112;-31
2022/10/02 13:00:51;;;;;;;4.15;1.80;;;;;;;17.49;64.76;100688.16;5048952;28;20087;-31
2022/10/02 13:03:38;;;;;;;4.93;2.03;;;;;;;17.52;65.08;100682.72;5066125;28;20052;-31
2022/10/02 13:06:13;;;;;;;4.82;1.95;;;;;;;17.52;64.62;100682.72;5050492;28;20017;-31
2022/10/02 13:08:59;;;;;;;6.65;2.10;;;;;;;17.52;64.86;100690.72;5034115;28;20035;-31
2022/10/02 13:11:43;;;;;;;4.43;2.05;;;;;;;17.53;63.92;100687.09;5048541;28;20029;-31
2022/10/02 13:14:37;;;;;;;6.13;1.85;;;;;;;17.52;64.17;100690.72;5051778;28;20036;-31
2022/10/02 13:17:21;;;;;;;4.22;1.98;;;;;;;17.50;63.58;100684.56;5036735;28;20029;-31
2022/10/02 13:19:52;;;;;;;5.20;1.88;;;;;;;17.46;62.03;100682.94;5067720;28;20387;-31
2022/10/02 13:22:30;;;;;;;5.28;1.90;;;;;;;17.43;61.80;100694.59;5068539;28;20029;-31
2022/10/02 13:25:17;;;;;;;6.28;1.67;;;;;;;17.40;61.64;100689.38;5068091;28;20027;-31
2022/10/02 13:27:49;;;;;;;4.85;1.73;;;;;;;17.37;61.87;100694.81;5068255;28;20024;-31
2022/10/02 13:30:22;;;;;;;4.30;1.77;;;;;;;17.34;61.96;100689.59;5066866;28;20021;-31
2022/10/02 13:33:14;;;;;;;6.15;1.98;;;;;;;17.33;62.11;100681.66;5053452;28;20047;-30
2022/10/02 13:36:02;;;;;;;8.18;1.92;;;;;;;17.33;62.20;100690.53;5066295;28;20051;-31
2022/10/02 13:39:05;;;;;;;5.35;2.00;;;;;;;17.33;63.26;100687.84;5053457;28;20085;-30
2022/10/02 13:41:53;;;;;;;3.35;1.55;;;;;;;17.31;63.00;100695.91;5032929;28;20036;-31
2022/10/02 13:44:35;;;;;;;5.00;1.80;;;;;;;17.35;62.96;100698.47;5025797;28;20033;-31
2022/10/02 13:47:37;;;;;;;3.42;1.75;;;;;;;17.35;62.45;100699.34;5050829;28;20055;-31
2022/10/02 13:50:17;;;;;;;7.50;1.90;;;;;;;17.45;63.10;100699.88;5037310;28;20193;-31
2022/10/02 13:53:07;;;;;;;6.20;2.00;;;;;;;17.48;62.60;100697.09;5035650;28;20067;-31
2022/10/02 13:55:41;;;;;;;6.43;1.63;;;;;;;17.53;62.83;100695.09;5047349;28;20029;-31
2022/10/02 13:58:17;;;;;;;4.43;1.80;;;;;;;17.54;63.62;100691.50;5035955;28;20033;-31
2022/10/02 14:01:07;;;;;;;3.83;1.80;;;;;;;17.56;62.67;100697.66;5036276;28;20413;-31
2022/10/02 14:03:48;;;;;;;6.35;1.92;;;;;;;17.59;62.37;100701.13;5032798;28;20029;-31
2022/10/02 14:06:19;;;;;;;6.00;1.77;;;;;;;17.60;63.07;100692.22;5034304;28;20047;-30
2022/10/02 14:09:11;;;;;;;4.85;1.85;;;;;;;17.62;62.94;100693.00;5037121;28;20032;-31
2022/10/02 14:12:07;;;;;;;6.05;1.80;;;;;;;17.64;63.93;100691.16;5035729;28;20037;-31
2022/10/02 14:18:21;;;;;;;3.50;1.67;;;;;;;17.71;64.44;100698.00;5052486;28;20522;-31
2022/10/02 14:21:11;;;;;;;4.93;1.75;;;;;;;17.76;64.27;100708.47;5056878;28;20120;-31
2022/10/02 14:23:36;;;;;;;6.15;1.95;;;;;;;17.85;64.46;100712.59;5053312;28;20056;-30
2022/10/02 14:26:05;;;;;;;6.83;1.80;;;;;;;17.88;63.40;100712.47;5053174;28;20462;-31
2022/10/02 14:28:58;;;;;;;3.63;1.60;;;;;;;17.94;63.84;100721.09;5052683;28;20025;-30
2022/10/02 14:31:42;;;;;;;5.30;2.17;;;;;;;17.97;63.94;100720.09;5019464;28;20111;-31
2022/10/02 14:34:30;;;;;;;4.97;1.92;;;;;;;17.98;64.75;100716.53;5040129;28;20021;-31
2022/10/02 14:37:30;;;;;;;4.55;2.25;;;;;;;17.96;64.54;100723.72;5046243;28;20553;-30
2022/10/02 14:39:56;;;;;;;5.82;2.50;;;;;;;17.98;64.37;100729.88;5052569;28;20032;-30
2022/10/02 14:42:49;;;;;;;5.28;2.70;;;;;;;17.95;63.95;100751.31;5068038;28;20035;-30
2022/10/02 14:45:24;;;;;;;5.75;1.92;;;;;;;17.87;61.93;100764.09;5050837;28;20112;-31
2022/10/02 14:48:09;;;;;;;5.50;2.20;;;;;;;17.81;61.17;100765.19;5059481;28;20029;-31
2022/10/02 14:50:42;;;;;;;5.40;2.22;;;;;;;17.78;62.18;100763.50;5046150;28;20036;-30
2022/10/02 14:53:30;;;;;;;4.95;1.63;;;;;;;17.74;62.12;100764.53;5052356;28;20048;-31
2022/10/02 14:56:35;;;;;;;3.30;1.30;;;;;;;17.67;61.30;100765.69;5051987;28;20053;-31
2022/10/02 14:59:22;;;;;;;3.90;1.65;;;;;;;17.60;60.95;100780.22;5037968;28;20147;-31
2022/10/02 15:02:11;;;;;;;3.75;1.08;;;;;;;17.51;60.28;100787.59;5049516;28;20041;-30
2022/10/02 15:05:01;;;;;;;4.60;1.10;;;;;;;17.36;59.77;100786.38;5045435;28;20020;-30
2022/10/02 15:07:28;;;;;;;5.45;1.17;;;;;;;17.31;60.28;100773.19;5043804;28;20049;-30
2022/10/02 15:10:01;;;;;;;3.25;1.00;;;;;;;17.25;60.28;100778.78;5059469;28;20025;-31
2022/10/02 15:12:42;;;;;;;3.10;0.90;;;;;;;17.20;61.01;100777.19;5048884;28;20029;-31
2022/10/02 15:15:37;;;;;;;5.88;1.40;;;;;;;17.13;61.34;100771.19;5044219;28;20241;-31
2022/10/02 15:18:35;;;;;;;3.10;1.17;;;;;;;17.04;61.68;100780.38;5049054;28;20025;-30
2022/10/02 15:21:28;;;;;;;4.32;1.10;;;;;;;16.98;62.19;100777.91;5048151;28;20025;-31
2022/10/02 15:23:58;;;;;;;5.03;1.20;;;;;;;16.88;61.98;100782.69;5048075;28;20087;-30
2022/10/02 15:26:42;;;;;;;2.42;1.38;;;;;;;16.79;62.29;100784.72;5036401;28;20017;-30
2022/10/02 15:29:20;;;;;;;3.42;1.30;;;;;;;16.72;62.68;100774.31;5051179;28;20024;-31
2022/10/02 15:32:07;;;;;;;4.38;1.30;;;;;;;16.65;63.30;100773.66;5051723;28;20043;-30
2022/10/02 15:34:45;;;;;;;2.70;1.10;;;;;;;16.59;63.53;100771.19;5040611;28;20543;-30
2022/10/02 15:37:27;;;;;;;3.65;1.40;;;;;;;16.53;63.54;100767.81;5026133;28;20033;-31
2022/10/02 15:39:59;;;;;;;2.17;1.10;;;;;;;16.46;63.57;100766.28;5026752;28;20420;-30
2022/10/02 15:42:40;;;;;;;2.08;0.90;;;;;;;16.41;63.98;100776.22;5034746;28;20025;-30
2022/10/02 15:45:15;;;;;;;4.22;1.30;;;;;;;16.38;63.97;100768.31;5006394;28;20070;-30
2022/10/02 15:47:57;;;;;;;4.13;1.40;;;;;;;16.32;64.14;100765.84;5037085;28;20028;-30
2022/10/02 15:50:41;;;;;;;3.08;1.20;;;;;;;16.26;64.17;100770.44;5025282;28;20477;-30
2022/10/02 15:53:19;;;;;;;3.03;1.08;;;;;;;16.23;64.31;100775.84;5033857;28;20443;-31
2022/10/02 15:55:49;;;;;;;4.28;1.30;;;;;;;16.17;64.04;100778.69;5007194;28;20108;-30